Tuesday, March 03, 2015
03:11 UTC
  |  Log In   |  Register Free
Airport Search:

Pike County-Hatcher Field Airport
(KPBX)

Pike County-Hatcher Field Airport Diagram
No Airport Diagram Available

FAA data valid effective January 08, 2015 - March 05, 2015 (unless otherwise noted).

 
 
 
 
 
 
 
 
 
 
 
 
 
 

Current Aviation Weather for Pike County-Hatcher Field Airport (KPBX)

The most recent METAR observation for KPBX was updated at: 0217
METAR Summary (Translated METAR)
KPBX
030155Z AUTO 02006KT 10SM CLR 01/M07 A3035 RMK AO2 T00101068
KSJS
030215Z AUTO 04006KT 10SM CLR 01/M07 A3038 RMK AO2 T00071069
(11.8 nm NW from KPBX)
KLNP
030155Z AUTO 07003KT 10SM CLR 01/M06 A3031 RMK AO2
(34.5 nm SE from KPBX)
TAF Summary (Translated TAF)
KSJS
(46.1 nm NW from KLNP)
021724Z 0218/0318 VRB03KT P6SM SCT030 SCT100 FM030600 VRB03KT P6SM OVC080 FM031000 VRB03KT 4SM -FZRA OVC020 FM031300 VRB03KT 3SM -RA OVC004
  Airport Weather Conditions for KPBX

Current weather conditions are
not available for PBX


The nearest NOAA weather station
is at SJS, (11.8 nm NW from PBX)
  
 Current Weather at SJS
34° F
Fair
Northeast winds at 8.1 mph
SJS NOAA Radar

Pressure: 30.38 in
Humidity: 56%
Wind: Northeast at 8.1 MPH (7 KT)
Dew Point: 19.6°F
Visibility: 10.00 mi


Airport Weather Forecast for KPBX

Translated METAR and TAF for KLNP
Translated METAR for KLNP (0311 UTC 03 March 2015)
found at http://aviationweather.gov/adds/metars/
 
METAR text: KLNP 030255Z AUTO 06003KT 10SM CLR 01/M06 A3030 RMK AO2
Conditions at: KLNP (WISE/LONESOME PI, VA, US) observed 0255 UTC 03 March 2015
Temperature: 1.0°C (34°F)
Dewpoint: -6.0°C (21°F) [RH = 59%]
Pressure (altimeter): 30.30 inches Hg (1026.2 mb)
Winds: from the ENE (60 degrees) at 3 MPH (3 knots; 1.6 m/s)
Visibility: 10 or more miles (16+ km)
Ceiling: at least 12,000 feet AGL
Clouds: sky clear below 12,000 feet AGL
Weather: automated observation with no human augmentation;
there may or may not be significant weather present at this time
Translated TAF for KLNP

There is no translated TAF available for this airport

Find All Airport Services Find A Hotel Find A Rental Car Find A Golf Course Find A Restaurant $100 Hamburger



FBO's on the Field
FBO Company Facility Photos Services Transportation Aviation Fuel Prices: Prices include tax
Catering Weather Repair Courtesy Rental Type 100LL JetA JetA+ MOGAS 8087
 
Pikeville-Pike Airport

This FBO has not yet been rated
FS:Shell
Last Updated: Feb-11
Login to update fuel prices
SS:
Contact Pikeville-Pike AirportMore FBO Information
 
Add another FBO Facility Photos Catering Weather Repair Courtesy Rental Type 100LL JetA JetA+ MOGAS 8087
Services Transportation Aviation Fuel Prices: Prices include tax


model-print
model-print
model-print
model-print